Space — ZCTI8 — position and weather

sailwx.info

Track history (hours):
 
Tides and Currents Weather Stations Pressure Air Temp Water Temp Dewpoint Dewpoint Depression Visibility Wind Speed Wind Dir Waves Ship Positions

Space

Last reported at 2014-Oct-06 10:33 UTC. Time now 2014-Oct-25 10:21 UTC.
Position N 43°42' E 007°17'.
Warning: this ship's position is 18 days out of date.

Length 45 m; draft 2.7 m.

Type: Pleasure craft. MMSI: 319917000.

Date/timePositionNaut miles runAvg speedWind from/ knotsBaromVisibWave heightAir tempDewpointWater temp
2014-Oct-06 10:33N 43°42' E 007°17'1 1.5
2014-Oct-06 09:33N 43°42' E 007°19'0 0.4
2014-Oct-06 08:33N 43°42' E 007°19'0 0.0
2014-Oct-06 06:31N 43°42' E 007°19'0 0.0
2014-Oct-06 05:31N 43°42' E 007°19'0 0.0
2014-Oct-06 04:31N 43°42' E 007°19'0 0.0
2014-Oct-06 03:13N 43°42' E 007°19'0 0.0
2014-Oct-06 02:31N 43°42' E 007°19'0 0.0
2014-Oct-06 01:31N 43°42' E 007°19'0 0.0
2014-Oct-06 00:31N 43°42' E 007°19'0 0.0
2014-Oct-05 23:13N 43°42' E 007°19'0 0.0
2014-Oct-05 22:31N 43°42' E 007°19'0 0.0
2014-Oct-05 21:25N 43°42' E 007°19'0 0.0
2014-Oct-05 20:31N 43°42' E 007°19'0 0.0
2014-Oct-05 19:31N 43°42' E 007°19'0 0.0
2014-Oct-05 18:31N 43°42' E 007°19'0 0.0
2014-Oct-05 17:25N 43°42' E 007°19'4 4.5
2014-Oct-05 16:33N 43°39' E 007°15'3 3.0
2014-Oct-05 15:32N 43°39' E 007°11'3 2.8
2014-Oct-05 14:33N 43°36' E 007°10'1211.5
2014-Oct-05 13:33N 43°28' E 006°60'1212.4
2014-Oct-05 12:33N 43°20' E 006°46'6 5.9
2014-Oct-05 11:32N 43°16' E 006°40'0 0.0
2014-Oct-05 10:32N 43°16' E 006°40'0 0.0
2014-Oct-05 09:32N 43°16' E 006°40'0 0.0
2014-Oct-05 08:32N 43°16' E 006°40'0 0.0
2014-Oct-05 07:32N 43°16' E 006°40'0 0.0
2014-Oct-05 06:32N 43°16' E 006°40'0 0.0
2014-Oct-05 05:29N 43°16' E 006°40'0 0.0
2014-Oct-05 04:32N 43°16' E 006°40'0 0.0
2014-Oct-05 03:32N 43°16' E 006°40'0 0.0
2014-Oct-05 02:32N 43°16' E 006°40'0 0.0
2014-Oct-05 01:32N 43°16' E 006°40'0 0.0
2014-Oct-05 00:32N 43°16' E 006°40'0 0.0
2014-Oct-04 23:29N 43°16' E 006°40'0 0.0
2014-Oct-04 22:29N 43°16' E 006°40'0 0.0
2014-Oct-04 21:29N 43°16' E 006°40'0 0.0
2014-Oct-04 20:32N 43°16' E 006°40'0 0.0
2014-Oct-04 19:32N 43°16' E 006°40'0 0.0
2014-Oct-04 18:29N 43°16' E 006°40'0 0.0
2014-Oct-04 17:32N 43°16' E 006°40'0 0.0
2014-Oct-04 16:32N 43°16' E 006°40'0 0.0
2014-Oct-04 15:32N 43°16' E 006°40'1 0.8
2014-Oct-04 14:32N 43°17' E 006°39'3 1.2
2014-Oct-04 11:32N 43°14' E 006°40'2 1.7
2014-Oct-04 10:33N 43°15' E 006°42'2 2.2
2014-Oct-04 09:31N 43°16' E 006°40'0 0.0
2014-Oct-04 08:28N 43°16' E 006°40'0 0.0
2014-Oct-04 07:31N 43°16' E 006°40'0 0.0
2014-Oct-04 06:31N 43°16' E 006°40'0 0.0
2014-Oct-04 05:31N 43°16' E 006°40'0 0.0
2014-Oct-04 04:31N 43°16' E 006°40'0 0.0
2014-Oct-04 03:31N 43°17' E 006°40'0 0.0
2014-Oct-04 02:31N 43°16' E 006°40'0 0.0
2014-Oct-04 01:25N 43°16' E 006°40'0 0.0
2014-Oct-04 00:31N 43°17' E 006°40'0 0.0
2014-Oct-03 23:31N 43°16' E 006°40'0 0.0
2014-Oct-03 22:31N 43°16' E 006°40'0 0.0
2014-Oct-03 21:31N 43°17' E 006°40'0 0.0
2014-Oct-03 20:25N 43°17' E 006°40'0 0.0
2014-Oct-03 18:33N 43°17' E 006°40'10 9.7
2014-Oct-03 17:33N 43°22' E 006°51'1313.1
2014-Oct-03 16:33N 43°30' E 007°05'10 9.2
2014-Oct-03 15:29N 43°39' E 007°11'0 0.0
2014-Oct-03 14:29N 43°39' E 007°11'0 0.0
2014-Oct-03 13:29N 43°39' E 007°11'0 0.0
2014-Oct-03 12:29N 43°39' E 007°11'0 0.0
2014-Oct-03 11:29N 43°39' E 007°11'0 0.0
2014-Oct-03 10:29N 43°39' E 007°11'0 0.0
2014-Oct-03 09:29N 43°39' E 007°11'0 0.0
2014-Oct-03 08:23N 43°39' E 007°11'0 0.0
2014-Oct-03 07:23N 43°39' E 007°11'5 5.6
2014-Oct-03 06:30N 43°40' E 007°17'2 0.2
2014-Oct-02 17:27N 43°42' E 007°19'0 0.0
2014-Oct-02 14:27N 43°42' E 007°19'0 0.0
2014-Oct-02 13:33N 43°42' E 007°19'0 0.0
2014-Oct-02 12:33N 43°42' E 007°19'8 7.7
2014-Oct-02 11:33N 43°42' E 007°30'  
2014-Sep-29 19:20N 43°53' E 008°01'0 0.0
2014-Sep-29 18:26N 43°53' E 008°01'0 0.0
2014-Sep-29 17:26N 43°53' E 008°01'0 0.0
2014-Sep-29 03:14N 43°53' E 008°01'0 0.0
2014-Sep-28 15:05N 43°53' E 008°01'0 0.0
2014-Sep-28 14:29N 43°53' E 008°01'0 0.0
2014-Sep-28 13:23N 43°53' E 008°01'0 0.0
2014-Sep-28 01:11N 43°53' E 008°01'0 0.0
2014-Sep-28 00:11N 43°53' E 008°01'0 0.0
2014-Sep-27 11:14N 43°53' E 008°01'0 0.0
2014-Sep-26 18:08N 43°53' E 008°01'0 0.0
2014-Sep-26 17:29N 43°53' E 008°01'0 0.0
2014-Sep-26 16:29N 43°53' E 008°01'  
Track history (hours):
 
Tides and Currents Weather Stations Pressure Air Temp Water Temp Dewpoint Dewpoint Depression Visibility Wind Speed Wind Dir Waves Ship Positions

Space

Last reported at 2014-Oct-06 10:33 UTC. Time now 2014-Oct-25 10:21 UTC.
Position N 43°42' E 007°17'.
Warning: this ship's position is 18 days out of date.

Length 45 m; draft 2.7 m.

Type: Pleasure craft. MMSI: 319917000.

Date/timePositionNaut miles runAvg speedWind from/ knotsBaromVisibWave heightAir tempDewpointWater temp
2014-Oct-06 10:33N 43°42' E 007°17'1 1.5
2014-Oct-06 09:33N 43°42' E 007°19'0 0.4
2014-Oct-06 08:33N 43°42' E 007°19'0 0.0
2014-Oct-06 06:31N 43°42' E 007°19'0 0.0
2014-Oct-06 05:31N 43°42' E 007°19'0 0.0
2014-Oct-06 04:31N 43°42' E 007°19'0 0.0
2014-Oct-06 03:13N 43°42' E 007°19'0 0.0
2014-Oct-06 02:31N 43°42' E 007°19'0 0.0
2014-Oct-06 01:31N 43°42' E 007°19'0 0.0
2014-Oct-06 00:31N 43°42' E 007°19'0 0.0
2014-Oct-05 23:13N 43°42' E 007°19'0 0.0
2014-Oct-05 22:31N 43°42' E 007°19'0 0.0
2014-Oct-05 21:25N 43°42' E 007°19'0 0.0
2014-Oct-05 20:31N 43°42' E 007°19'0 0.0
2014-Oct-05 19:31N 43°42' E 007°19'0 0.0
2014-Oct-05 18:31N 43°42' E 007°19'0 0.0
2014-Oct-05 17:25N 43°42' E 007°19'4 4.5
2014-Oct-05 16:33N 43°39' E 007°15'3 3.0
2014-Oct-05 15:32N 43°39' E 007°11'3 2.8
2014-Oct-05 14:33N 43°36' E 007°10'1211.5
2014-Oct-05 13:33N 43°28' E 006°60'1212.4
2014-Oct-05 12:33N 43°20' E 006°46'6 5.9
2014-Oct-05 11:32N 43°16' E 006°40'0 0.0
2014-Oct-05 10:32N 43°16' E 006°40'0 0.0
2014-Oct-05 09:32N 43°16' E 006°40'0 0.0
2014-Oct-05 08:32N 43°16' E 006°40'0 0.0
2014-Oct-05 07:32N 43°16' E 006°40'0 0.0
2014-Oct-05 06:32N 43°16' E 006°40'0 0.0
2014-Oct-05 05:29N 43°16' E 006°40'0 0.0
2014-Oct-05 04:32N 43°16' E 006°40'0 0.0
2014-Oct-05 03:32N 43°16' E 006°40'0 0.0
2014-Oct-05 02:32N 43°16' E 006°40'0 0.0
2014-Oct-05 01:32N 43°16' E 006°40'0 0.0
2014-Oct-05 00:32N 43°16' E 006°40'0 0.0
2014-Oct-04 23:29N 43°16' E 006°40'0 0.0
2014-Oct-04 22:29N 43°16' E 006°40'0 0.0
2014-Oct-04 21:29N 43°16' E 006°40'0 0.0
2014-Oct-04 20:32N 43°16' E 006°40'0 0.0
2014-Oct-04 19:32N 43°16' E 006°40'0 0.0
2014-Oct-04 18:29N 43°16' E 006°40'0 0.0
2014-Oct-04 17:32N 43°16' E 006°40'0 0.0
2014-Oct-04 16:32N 43°16' E 006°40'0 0.0
2014-Oct-04 15:32N 43°16' E 006°40'1 0.8
2014-Oct-04 14:32N 43°17' E 006°39'3 1.2
2014-Oct-04 11:32N 43°14' E 006°40'2 1.7
2014-Oct-04 10:33N 43°15' E 006°42'2 2.2
2014-Oct-04 09:31N 43°16' E 006°40'0 0.0
2014-Oct-04 08:28N 43°16' E 006°40'0 0.0
2014-Oct-04 07:31N 43°16' E 006°40'0 0.0
2014-Oct-04 06:31N 43°16' E 006°40'0 0.0
2014-Oct-04 05:31N 43°16' E 006°40'0 0.0
2014-Oct-04 04:31N 43°16' E 006°40'0 0.0
2014-Oct-04 03:31N 43°17' E 006°40'0 0.0
2014-Oct-04 02:31N 43°16' E 006°40'0 0.0
2014-Oct-04 01:25N 43°16' E 006°40'0 0.0
2014-Oct-04 00:31N 43°17' E 006°40'0 0.0
2014-Oct-03 23:31N 43°16' E 006°40'0 0.0
2014-Oct-03 22:31N 43°16' E 006°40'0 0.0
2014-Oct-03 21:31N 43°17' E 006°40'0 0.0
2014-Oct-03 20:25N 43°17' E 006°40'0 0.0
2014-Oct-03 18:33N 43°17' E 006°40'10 9.7
2014-Oct-03 17:33N 43°22' E 006°51'1313.1
2014-Oct-03 16:33N 43°30' E 007°05'10 9.2
2014-Oct-03 15:29N 43°39' E 007°11'0 0.0
2014-Oct-03 14:29N 43°39' E 007°11'0 0.0
2014-Oct-03 13:29N 43°39' E 007°11'0 0.0
2014-Oct-03 12:29N 43°39' E 007°11'0 0.0
2014-Oct-03 11:29N 43°39' E 007°11'0 0.0
2014-Oct-03 10:29N 43°39' E 007°11'0 0.0
2014-Oct-03 09:29N 43°39' E 007°11'0 0.0
2014-Oct-03 08:23N 43°39' E 007°11'0 0.0
2014-Oct-03 07:23N 43°39' E 007°11'5 5.6
2014-Oct-03 06:30N 43°40' E 007°17'2 0.2
2014-Oct-02 17:27N 43°42' E 007°19'0 0.0
2014-Oct-02 14:27N 43°42' E 007°19'0 0.0
2014-Oct-02 13:33N 43°42' E 007°19'0 0.0
2014-Oct-02 12:33N 43°42' E 007°19'8 7.7
2014-Oct-02 11:33N 43°42' E 007°30'  
2014-Sep-29 19:20N 43°53' E 008°01'0 0.0
2014-Sep-29 18:26N 43°53' E 008°01'0 0.0
2014-Sep-29 17:26N 43°53' E 008°01'0 0.0
2014-Sep-29 03:14N 43°53' E 008°01'0 0.0
2014-Sep-28 15:05N 43°53' E 008°01'0 0.0
2014-Sep-28 14:29N 43°53' E 008°01'0 0.0
2014-Sep-28 13:23N 43°53' E 008°01'0 0.0
2014-Sep-28 01:11N 43°53' E 008°01'0 0.0
2014-Sep-28 00:11N 43°53' E 008°01'0 0.0
2014-Sep-27 11:14N 43°53' E 008°01'0 0.0
2014-Sep-26 18:08N 43°53' E 008°01'0 0.0
2014-Sep-26 17:29N 43°53' E 008°01'0 0.0
2014-Sep-26 16:29N 43°53' E 008°01'  

Dump ship's entire track history